createdAt,value
2019-03-26T00:01:42.587Z,99618.14
2019-03-26T00:04:12.359Z,99616.44
2019-03-26T00:06:42.116Z,99617.85
2019-03-26T00:09:12.094Z,99623.23
2019-03-26T00:11:42.225Z,99621.73
2019-03-26T00:14:12.224Z,99618.48
2019-03-26T00:16:41.893Z,99623.34
2019-03-26T00:19:11.672Z,99623.59
2019-03-26T00:21:41.362Z,99618.91
2019-03-26T00:24:11.115Z,99619.58
2019-03-26T00:26:40.747Z,99621.80
2019-03-26T00:29:20.295Z,99619.36
2019-03-26T00:31:49.950Z,99619.64
2019-03-26T00:34:19.925Z,99626.36
2019-03-26T00:36:49.562Z,99626.53
2019-03-26T00:39:19.284Z,99624.62
2019-03-26T00:41:49.257Z,99630.61
2019-03-26T00:44:18.914Z,99635.73
2019-03-26T00:46:48.665Z,99630.91
2019-03-26T00:49:18.317Z,99631.62
2019-03-26T00:51:48.103Z,99628.48
2019-03-26T00:54:17.768Z,99637.22
2019-03-26T00:56:47.454Z,99638.72
2019-03-26T00:59:17.161Z,99634.16
2019-03-26T01:01:46.896Z,99633.59
2019-03-26T01:04:16.558Z,99636.89
2019-03-26T01:06:46.249Z,99638.03
2019-03-26T01:09:15.950Z,99639.16
2019-03-26T01:11:45.603Z,99645.21
2019-03-26T01:14:15.284Z,99651.73
2019-03-26T01:16:45.007Z,99653.23
2019-03-26T01:19:14.662Z,99649.05
2019-03-26T01:21:44.405Z,99652.16
2019-03-26T01:24:14.439Z,99656.64
2019-03-26T01:26:44.138Z,99662.70
2019-03-26T01:29:14.188Z,99659.38
2019-03-26T01:31:43.886Z,99660.65
2019-03-26T01:34:13.579Z,99660.99
2019-03-26T01:36:43.283Z,99668.08
2019-03-26T01:39:12.934Z,99669.01
2019-03-26T01:41:42.594Z,99661.72
2019-03-26T01:44:12.271Z,99666.16
2019-03-26T01:46:41.966Z,99668.20
2019-03-26T01:49:11.663Z,99665.22
2019-03-26T01:51:41.352Z,99668.75
2019-03-26T01:54:11.035Z,99664.06
2019-03-26T01:56:40.683Z,99662.44
2019-03-26T01:59:10.720Z,99660.42
2019-03-26T02:01:40.377Z,99656.98
2019-03-26T02:04:10.082Z,99659.63
2019-03-26T02:06:39.886Z,99658.69
2019-03-26T02:09:09.593Z,99661.58
2019-03-26T02:11:39.273Z,99658.69
2019-03-26T02:14:08.970Z,99667.17
2019-03-26T02:16:38.756Z,99666.70
2019-03-26T02:19:08.447Z,99670.37
2019-03-26T02:21:38.144Z,99668.28
2019-03-26T02:24:07.846Z,99669.82
2019-03-26T02:26:37.542Z,99663.92
2019-03-26T02:29:07.191Z,99666.53
2019-03-26T02:31:36.891Z,99667.17
2019-03-26T02:34:06.552Z,99675.11
2019-03-26T02:36:36.241Z,99681.77
2019-03-26T02:39:07.863Z,99675.16
2019-03-26T02:41:38.258Z,99682.35
2019-03-26T02:44:08.001Z,99675.88
2019-03-26T02:46:37.990Z,99678.86
2019-03-26T02:49:07.747Z,99674.25
2019-03-26T02:51:37.401Z,99671.78
2019-03-26T02:54:07.270Z,99669.22
2019-03-26T02:56:36.958Z,99672.55
2019-03-26T02:59:06.618Z,99670.50
2019-03-26T03:01:36.334Z,99675.49
2019-03-26T03:04:06.016Z,99672.84
2019-03-26T03:06:35.670Z,99671.05
2019-03-26T03:09:07.272Z,99671.47
2019-03-26T03:11:36.930Z,99673.34
2019-03-26T03:14:06.566Z,99675.82
2019-03-26T03:16:36.279Z,99675.91
2019-03-26T03:19:05.936Z,99674.28
2019-03-26T03:21:35.708Z,99672.27
2019-03-26T03:24:05.434Z,99666.81
2019-03-26T03:26:35.199Z,99667.89
2019-03-26T03:29:04.960Z,99672.71
2019-03-26T03:31:34.601Z,99662.85
2019-03-26T03:34:04.357Z,99666.75
2019-03-26T03:36:34.051Z,99668.63
2019-03-26T03:39:04.808Z,99673.81
2019-03-26T03:41:34.506Z,99675.38
2019-03-26T03:44:04.207Z,99679.33
2019-03-26T03:46:34.308Z,99678.02
2019-03-26T03:49:04.370Z,99679.73
2019-03-26T03:51:36.161Z,99681.58
2019-03-26T03:54:06.238Z,99676.06
2019-03-26T03:56:37.874Z,99686.56
2019-03-26T03:59:10.391Z,99688.51
2019-03-26T04:01:40.179Z,99684.86
2019-03-26T04:04:09.890Z,99690.23
2019-03-26T04:06:39.597Z,99680.19
2019-03-26T04:09:09.294Z,99678.85
2019-03-26T04:11:39.330Z,99675.52
2019-03-26T04:14:09.327Z,99678.27
2019-03-26T04:16:39.161Z,99686.56
2019-03-26T04:19:08.932Z,99691.86
2019-03-26T04:21:38.590Z,99688.59
2019-03-26T04:24:08.255Z,99686.25
2019-03-26T04:26:37.938Z,99686.64
2019-03-26T04:29:07.727Z,99689.37
2019-03-26T04:31:37.343Z,99692.33
2019-03-26T04:34:07.023Z,99684.01
2019-03-26T04:36:36.680Z,99694.73
2019-03-26T04:39:07.847Z,99693.63
2019-03-26T04:41:37.522Z,99689.28
2019-03-26T04:44:07.180Z,99691.23
2019-03-26T04:46:37.296Z,99687.58
2019-03-26T04:49:06.955Z,99690.84
2019-03-26T04:51:36.667Z,99688.81
2019-03-26T04:54:06.416Z,99690.69
2019-03-26T04:56:36.127Z,99694.48
2019-03-26T04:59:05.814Z,99696.82
2019-03-26T05:01:35.484Z,99704.84
2019-03-26T05:04:05.135Z,99703.75
2019-03-26T05:06:38.249Z,99713.38
2019-03-26T05:09:06.710Z,99711.59
2019-03-26T05:11:36.422Z,99715.42
2019-03-26T05:14:06.086Z,99714.88
2019-03-26T05:16:36.168Z,99718.11
2019-03-26T05:19:05.813Z,99715.95
2019-03-26T05:21:35.513Z,99719.23
2019-03-26T05:24:05.297Z,99710.81
2019-03-26T05:26:34.989Z,99711.67
2019-03-26T05:29:04.693Z,99710.91
2019-03-26T05:31:34.331Z,99702.88
2019-03-26T05:34:03.997Z,99704.84
2019-03-26T05:36:33.659Z,99710.06
2019-03-26T05:39:04.886Z,99705.75
2019-03-26T05:41:34.542Z,99726.89
2019-03-26T05:44:04.249Z,99724.35
2019-03-26T05:46:34.203Z,99725.28
2019-03-26T05:49:03.931Z,99730.96
2019-03-26T05:51:33.614Z,99733.27
2019-03-26T05:54:03.326Z,99728.30
2019-03-26T05:56:32.979Z,99727.77
2019-03-26T05:59:02.662Z,99731.27
2019-03-26T06:01:32.302Z,99727.34
2019-03-26T06:04:02.315Z,99728.08
2019-03-26T06:06:31.968Z,99731.39
2019-03-26T06:09:01.786Z,99734.34
2019-03-26T06:11:31.513Z,99734.75
2019-03-26T06:14:01.183Z,99748.28
2019-03-26T06:16:38.185Z,99743.52
2019-03-26T06:19:02.293Z,99746.16
2019-03-26T06:21:31.970Z,99743.28
2019-03-26T06:24:01.617Z,99748.09
2019-03-26T06:26:31.310Z,99734.42
2019-03-26T06:29:01.322Z,99745.14
2019-03-26T06:31:31.111Z,99750.15
2019-03-26T06:34:00.825Z,99759.44
2019-03-26T06:36:30.468Z,99759.44
2019-03-26T06:39:00.001Z,99753.77
2019-03-26T06:41:29.745Z,99749.57
2019-03-26T06:43:59.359Z,99757.77
2019-03-26T06:46:29.019Z,99766.31
2019-03-26T06:48:58.648Z,99760.72
2019-03-26T06:51:28.279Z,99766.13
2019-03-26T06:53:57.831Z,99762.23
2019-03-26T06:56:27.617Z,99769.16
2019-03-26T06:58:57.240Z,99775.84
2019-03-26T07:01:26.931Z,99770.47
2019-03-26T07:03:56.646Z,99777.89
2019-03-26T07:06:26.295Z,99786.20
2019-03-26T07:08:55.908Z,99775.88
2019-03-26T07:11:25.573Z,99782.40
2019-03-26T07:13:55.200Z,99770.84
2019-03-26T07:16:24.837Z,99776.12
2019-03-26T07:18:54.527Z,99784.19
2019-03-26T07:21:24.195Z,99779.68
2019-03-26T07:23:53.802Z,99788.73
2019-03-26T07:26:23.445Z,99795.72
2019-03-26T07:28:53.078Z,99782.97
2019-03-26T07:31:22.632Z,99781.50
2019-03-26T07:33:52.263Z,99788.74
2019-03-26T07:36:21.881Z,99777.84
2019-03-26T07:38:51.497Z,99795.43
2019-03-26T07:41:21.149Z,99809.12
2019-03-26T07:43:50.814Z,99805.15
2019-03-26T07:46:21.038Z,99804.19
2019-03-26T07:48:57.243Z,99804.04
2019-03-26T07:51:37.191Z,99802.73
2019-03-26T07:54:06.657Z,99792.23
2019-03-26T07:56:36.344Z,99792.47
2019-03-26T07:59:05.951Z,99795.13
2019-03-26T08:01:35.924Z,99798.08
2019-03-26T08:04:05.588Z,99796.75
2019-03-26T08:06:35.275Z,99792.56
2019-03-26T08:09:06.078Z,99795.73
2019-03-26T08:11:35.814Z,99801.03
2019-03-26T08:14:05.506Z,99799.18
2019-03-26T08:16:35.272Z,99785.88
2019-03-26T08:19:05.014Z,99776.31
2019-03-26T08:21:34.670Z,99775.90
2019-03-26T08:24:04.276Z,99770.53
2019-03-26T08:26:33.915Z,99777.41
2019-03-26T08:29:03.603Z,99789.07
2019-03-26T08:31:32.994Z,99791.80
2019-03-26T08:34:02.652Z,99789.59
2019-03-26T08:36:32.198Z,99784.67
2019-03-26T08:39:01.879Z,99775.00
2019-03-26T08:41:31.430Z,99790.23
2019-03-26T08:44:01.073Z,99803.14
2019-03-26T08:46:30.725Z,99803.16
2019-03-26T08:49:00.288Z,99804.16
2019-03-26T08:51:29.897Z,99795.81
2019-03-26T08:53:59.471Z,99816.42
2019-03-26T08:56:29.099Z,99799.38
2019-03-26T08:58:58.769Z,99799.36
2019-03-26T09:01:28.426Z,99789.90
2019-03-26T09:03:58.057Z,99780.84
2019-03-26T09:06:27.685Z,99778.29
2019-03-26T09:08:57.327Z,99771.02
2019-03-26T09:11:26.978Z,99770.36
2019-03-26T09:13:56.622Z,99770.55
2019-03-26T09:16:26.573Z,99776.31
2019-03-26T09:18:56.258Z,99780.45
2019-03-26T09:21:25.975Z,99781.06
2019-03-26T09:23:55.631Z,99769.88
2019-03-26T09:26:25.249Z,99770.92
2019-03-26T09:28:54.897Z,99763.03
2019-03-26T09:31:25.294Z,99759.70
2019-03-26T09:33:54.951Z,99758.94
2019-03-26T09:36:24.580Z,99768.95
2019-03-26T09:38:54.197Z,99749.70
2019-03-26T09:41:23.856Z,99755.33
2019-03-26T09:43:53.519Z,99763.88
2019-03-26T09:46:23.142Z,99744.50
2019-03-26T09:48:52.762Z,99742.60
2019-03-26T09:51:22.408Z,99750.56
2019-03-26T09:53:51.968Z,99745.06
2019-03-26T09:56:28.530Z,99754.88
2019-03-26T09:58:52.953Z,99745.40
2019-03-26T10:01:22.628Z,99737.44
2019-03-26T10:03:52.272Z,99743.80
2019-03-26T10:06:23.680Z,99745.26
2019-03-26T10:08:53.156Z,99754.45
2019-03-26T10:11:22.826Z,99765.97
2019-03-26T10:13:52.468Z,99754.73
2019-03-26T10:16:22.076Z,99760.52
2019-03-26T10:18:51.719Z,99755.34
2019-03-26T10:21:21.361Z,99761.27
2019-03-26T10:23:50.997Z,99751.66
2019-03-26T10:26:20.645Z,99749.90
2019-03-26T10:28:50.219Z,99757.37
2019-03-26T10:31:19.782Z,99766.63
2019-03-26T10:33:49.488Z,99764.49
2019-03-26T10:36:19.157Z,99755.63
2019-03-26T10:38:48.889Z,99761.70
2019-03-26T10:41:18.837Z,99778.41
2019-03-26T10:43:48.550Z,99773.07
2019-03-26T10:46:18.377Z,99759.85
2019-03-26T10:48:48.096Z,99751.28
2019-03-26T10:51:18.176Z,99748.66
2019-03-26T10:53:47.756Z,99743.77
2019-03-26T10:56:17.422Z,99745.09
2019-03-26T10:58:47.115Z,99742.25
2019-03-26T11:01:17.848Z,99736.50
2019-03-26T11:03:47.482Z,99732.98
2019-03-26T11:06:17.687Z,99732.41
2019-03-26T11:08:47.391Z,99731.04
2019-03-26T11:11:17.018Z,99737.69
2019-03-26T11:13:46.669Z,99731.91
2019-03-26T11:16:16.275Z,99728.55
2019-03-26T11:18:45.916Z,99735.55
2019-03-26T11:21:15.674Z,99730.28
2019-03-26T11:23:45.390Z,99732.66
2019-03-26T11:26:15.033Z,99733.69
2019-03-26T11:28:44.678Z,99743.27
2019-03-26T11:31:14.292Z,99736.96
2019-03-26T11:33:44.453Z,99737.16
2019-03-26T11:36:14.265Z,99732.23
2019-03-26T11:38:44.587Z,99735.24
2019-03-26T11:41:14.242Z,99734.51
2019-03-26T11:43:44.162Z,99735.63
2019-03-26T11:46:13.890Z,99744.36
2019-03-26T11:48:43.620Z,99734.88
2019-03-26T11:51:13.284Z,99736.34
2019-03-26T11:53:42.920Z,99727.06
2019-03-26T11:56:12.577Z,99726.53
2019-03-26T11:58:42.229Z,99730.88
2019-03-26T12:01:11.869Z,99723.17
2019-03-26T12:03:41.527Z,99726.61
2019-03-26T12:06:11.362Z,99725.35
2019-03-26T12:08:40.986Z,99727.94
2019-03-26T12:11:10.639Z,99729.72
2019-03-26T12:13:40.292Z,99723.27
2019-03-26T12:16:11.777Z,99721.31
2019-03-26T12:18:41.318Z,99714.74
2019-03-26T12:21:11.028Z,99718.05
2019-03-26T12:23:40.970Z,99712.09
2019-03-26T12:26:11.754Z,99715.59
2019-03-26T12:28:41.480Z,99724.53
2019-03-26T12:31:11.142Z,99717.77
2019-03-26T12:33:40.862Z,99719.28
2019-03-26T12:36:10.620Z,99710.95
2019-03-26T12:38:40.228Z,99713.25
2019-03-26T12:41:29.008Z,99723.45
2019-03-26T12:43:59.306Z,99714.28
2019-03-26T12:46:30.312Z,99714.11
2019-03-26T12:49:00.362Z,99717.63
2019-03-26T12:51:30.191Z,99720.66
2019-03-26T12:54:02.100Z,99708.50
2019-03-26T12:56:48.457Z,99707.47
2019-03-26T13:02:11.529Z,99712.03
2019-03-26T13:04:41.440Z,99718.84
2019-03-26T13:07:11.349Z,99708.79
2019-03-26T13:09:42.012Z,99711.91
2019-03-26T13:12:18.229Z,99713.79
2019-03-26T13:14:48.039Z,99710.22
2019-03-26T13:17:17.753Z,99709.47
2019-03-26T13:19:47.591Z,99710.97
2019-03-26T13:22:17.330Z,99706.02
2019-03-26T13:24:50.256Z,99705.64
2019-03-26T13:27:24.440Z,99709.17
2019-03-26T13:29:54.455Z,99713.23
2019-03-26T13:32:27.391Z,99715.47
2019-03-26T13:34:59.661Z,99718.40
2019-03-26T13:37:29.748Z,99720.58
2019-03-26T13:40:01.745Z,99725.70
2019-03-26T13:42:34.136Z,99720.20
2019-03-26T13:45:08.076Z,99716.41
2019-03-26T13:47:35.529Z,99705.80
2019-03-26T13:50:06.711Z,99717.39
2019-03-26T13:52:40.765Z,99712.40
2019-03-26T13:55:10.491Z,99716.38
2019-03-26T13:57:41.500Z,99713.95
2019-03-26T14:00:12.138Z,99714.47
2019-03-26T14:02:41.928Z,99714.86
2019-03-26T14:05:25.184Z,99715.33
2019-03-26T14:07:58.512Z,99715.34
2019-03-26T14:10:40.102Z,99715.91
2019-03-26T14:13:01.765Z,99718.36
2019-03-26T14:15:31.555Z,99711.55
2019-03-26T14:18:18.870Z,99712.97
2019-03-26T14:20:48.710Z,99718.94
2019-03-26T14:23:21.853Z,99704.81
2019-03-26T14:25:54.929Z,99711.07
2019-03-26T14:28:27.173Z,99708.73
2019-03-26T14:30:59.963Z,99723.56
2019-03-26T14:33:29.706Z,99710.02
2019-03-26T14:35:59.634Z,99717.23
2019-03-26T14:38:29.420Z,99717.93
2019-03-26T14:40:59.228Z,99708.03
2019-03-26T14:47:05.966Z,99703.87
2019-03-26T14:49:35.737Z,99704.91
2019-03-26T14:52:07.426Z,99703.22
2019-03-26T14:54:38.687Z,99697.83
2019-03-26T14:57:08.587Z,99708.59
2019-03-26T14:59:38.465Z,99712.30
2019-03-26T15:02:08.180Z,99719.40
2019-03-26T15:04:42.709Z,99713.15
2019-03-26T15:07:12.372Z,99710.87
2019-03-26T15:09:42.331Z,99710.89
2019-03-26T15:12:12.237Z,99716.56
2019-03-26T15:14:46.300Z,99709.75
2019-03-26T15:17:16.115Z,99704.92
2019-03-26T15:19:48.361Z,99711.25
2019-03-26T15:22:17.730Z,99702.66
2019-03-26T15:24:50.351Z,99706.80
2019-03-26T15:27:23.328Z,99700.66
2019-03-26T15:29:54.240Z,99707.86
2019-03-26T15:32:24.478Z,99710.68
2019-03-26T15:34:54.307Z,99714.05
2019-03-26T15:37:23.942Z,99715.77
2019-03-26T15:39:53.623Z,99708.73
2019-03-26T15:42:24.491Z,99710.34
2019-03-26T15:44:54.199Z,99713.38
2019-03-26T15:47:24.291Z,99711.36
2019-03-26T15:49:54.349Z,99721.95
2019-03-26T15:52:26.092Z,99718.31
2019-03-26T15:54:56.066Z,99724.31
2019-03-26T15:57:35.351Z,99719.39
2019-03-26T16:00:14.160Z,99720.72
2019-03-26T16:02:45.353Z,99722.07
2019-03-26T16:05:16.300Z,99714.02
2019-03-26T16:07:46.303Z,99720.17
2019-03-26T16:10:16.209Z,99718.54
2019-03-26T16:12:46.229Z,99713.39
2019-03-26T16:15:26.706Z,99711.95
2019-03-26T16:17:56.602Z,99718.92
2019-03-26T16:20:29.771Z,99719.81
2019-03-26T16:23:04.897Z,99725.13
2019-03-26T16:25:39.615Z,99721.23
2019-03-26T16:28:16.508Z,99716.47
2019-03-26T16:30:46.361Z,99718.41
2019-03-26T16:33:21.805Z,99722.67
2019-03-26T16:35:51.763Z,99719.53
2019-03-26T16:38:56.332Z,99717.93
2019-03-26T16:41:32.109Z,99722.52
2019-03-26T16:44:19.267Z,99716.42
2019-03-26T16:46:49.047Z,99719.97
2019-03-26T16:49:19.031Z,99717.03
2019-03-26T16:51:55.595Z,99719.12
2019-03-26T16:54:58.198Z,99724.23
2019-03-26T16:57:34.263Z,99728.97
2019-03-26T17:00:04.400Z,99722.44
2019-03-26T17:02:34.195Z,99725.20
2019-03-26T17:05:05.292Z,99724.28
2019-03-26T17:07:39.703Z,99723.00
2019-03-26T17:10:14.903Z,99725.09
2019-03-26T17:12:47.222Z,99728.13
2019-03-26T17:15:25.714Z,99722.42
2019-03-26T17:17:56.082Z,99725.08
2019-03-26T17:20:28.389Z,99725.84
2019-03-26T17:22:58.322Z,99728.69
2019-03-26T17:25:28.636Z,99729.64
2019-03-26T17:28:01.403Z,99732.67
2019-03-26T17:30:46.358Z,99733.15
2019-03-26T17:33:18.454Z,99737.02
2019-03-26T17:35:56.779Z,99733.98
2019-03-26T17:38:31.056Z,99735.80
2019-03-26T17:41:01.049Z,99732.77
2019-03-26T17:43:30.866Z,99736.91
2019-03-26T17:46:08.225Z,99730.28
2019-03-26T17:48:38.467Z,99735.21
2019-03-26T17:51:08.274Z,99727.55
2019-03-26T17:53:38.323Z,99735.02
2019-03-26T17:56:08.756Z,99738.25
2019-03-26T17:58:42.442Z,99737.77
2019-03-26T18:01:14.186Z,99739.09
2019-03-26T18:03:44.163Z,99739.25
2019-03-26T18:06:14.282Z,99749.70
2019-03-26T18:08:45.611Z,99752.50
2019-03-26T18:11:15.476Z,99751.31
2019-03-26T18:13:59.947Z,99750.00
2019-03-26T18:16:31.300Z,99760.50
2019-03-26T18:19:01.279Z,99768.84
2019-03-26T18:21:31.239Z,99767.78
2019-03-26T18:24:00.940Z,99762.73
2019-03-26T18:26:30.695Z,99775.73
2019-03-26T18:29:09.560Z,99778.09
2019-03-26T18:31:39.268Z,99778.01
2019-03-26T18:34:10.075Z,99778.97
2019-03-26T18:36:39.872Z,99784.64
2019-03-26T18:39:15.104Z,99792.59
2019-03-26T18:41:44.939Z,99787.22
2019-03-26T18:44:20.200Z,99788.55
2019-03-26T18:46:50.482Z,99789.28
2019-03-26T18:49:21.096Z,99792.97
2019-03-26T18:51:54.055Z,99800.09
2019-03-26T18:54:27.967Z,99801.88
2019-03-26T18:56:58.697Z,99803.14
2019-03-26T18:59:30.544Z,99798.85
2019-03-26T19:02:03.070Z,99798.39
2019-03-26T19:04:36.205Z,99799.14
2019-03-26T19:10:29.829Z,99802.09
2019-03-26T19:13:02.069Z,99807.95
2019-03-26T19:15:38.295Z,99815.53
2019-03-26T19:18:39.813Z,99808.32
2019-03-26T19:24:09.117Z,99817.63
2019-03-26T19:26:39.225Z,99816.30
2019-03-26T19:29:29.231Z,99810.97
2019-03-26T19:32:47.410Z,99814.59
2019-03-26T19:35:16.118Z,99817.70
2019-03-26T19:37:54.046Z,99818.95
2019-03-26T19:40:27.611Z,99824.73
2019-03-26T19:43:10.680Z,99826.81
2019-03-26T19:45:39.394Z,99826.90
2019-03-26T19:48:14.117Z,99830.59
2019-03-26T19:50:46.803Z,99828.22
2019-03-26T19:53:18.311Z,99835.71
2019-03-26T19:55:59.386Z,99842.54
2019-03-26T19:58:29.536Z,99840.81
2019-03-26T20:01:04.181Z,99840.02
2019-03-26T20:03:37.318Z,99845.39
2019-03-26T20:06:13.747Z,99845.79
2019-03-26T20:08:51.624Z,99852.47
2019-03-26T20:11:24.269Z,99853.42
2019-03-26T20:16:57.635Z,99851.15
2019-03-26T20:19:44.120Z,99849.94
2019-03-26T20:22:27.684Z,99857.66
2019-03-26T20:25:05.795Z,99858.58
2019-03-26T20:27:43.648Z,99864.70
2019-03-26T20:30:20.118Z,99857.56
2019-03-26T20:32:49.233Z,99858.99
2019-03-26T20:35:30.475Z,99870.59
2019-03-26T20:38:02.903Z,99868.01
2019-03-26T20:40:34.543Z,99876.90
2019-03-26T20:43:06.483Z,99875.88
2019-03-26T20:45:36.469Z,99880.73
2019-03-26T20:48:20.935Z,99882.06
2019-03-26T20:50:50.234Z,99884.30
2019-03-26T20:53:21.508Z,99885.09
2019-03-26T20:55:54.498Z,99886.36
2019-03-26T20:58:23.952Z,99892.42
2019-03-26T21:00:55.642Z,99891.61
2019-03-26T21:03:28.060Z,99898.30
2019-03-26T21:05:57.752Z,99894.13
2019-03-26T21:08:27.434Z,99899.52
2019-03-26T21:10:57.238Z,99903.22
2019-03-26T21:13:26.992Z,99908.05
2019-03-26T21:15:57.740Z,99892.02
2019-03-26T21:18:28.021Z,99897.89
2019-03-26T21:20:57.686Z,99896.55
2019-03-26T21:23:27.384Z,99898.19
2019-03-26T21:25:57.058Z,99896.86
2019-03-26T21:28:26.763Z,99895.23
2019-03-26T21:30:56.536Z,99892.78
2019-03-26T21:33:26.291Z,99895.20
2019-03-26T21:35:56.013Z,99894.45
2019-03-26T21:38:25.804Z,99900.77
2019-03-26T21:40:55.639Z,99902.99
2019-03-26T21:43:25.389Z,99901.41
2019-03-26T21:45:55.519Z,99895.34
2019-03-26T21:48:25.255Z,99900.73
2019-03-26T21:50:55.200Z,99896.97
2019-03-26T21:53:24.902Z,99899.14
2019-03-26T21:56:05.894Z,99906.63
2019-03-26T21:58:26.751Z,99905.94
2019-03-26T22:00:56.539Z,99899.45
2019-03-26T22:03:26.218Z,99899.70
2019-03-26T22:05:55.882Z,99898.67
2019-03-26T22:08:25.611Z,99903.52
2019-03-26T22:10:55.264Z,99909.28
2019-03-26T22:13:24.927Z,99909.53
2019-03-26T22:15:54.591Z,99910.99
2019-03-26T22:18:24.373Z,99915.30
2019-03-26T22:20:54.067Z,99924.66
2019-03-26T22:23:23.914Z,99932.91
2019-03-26T22:25:53.598Z,99930.61
2019-03-26T22:28:23.287Z,99938.67
2019-03-26T22:30:53.111Z,99938.81
2019-03-26T22:33:23.099Z,99938.42
2019-03-26T22:35:55.897Z,99935.26
2019-03-26T22:38:24.290Z,99936.03
2019-03-26T22:40:54.392Z,99933.90
2019-03-26T22:43:24.481Z,99929.92
2019-03-26T22:45:54.189Z,99932.73
2019-03-26T22:48:23.975Z,99937.66
2019-03-26T22:50:53.649Z,99944.02
2019-03-26T22:53:23.816Z,99941.76
2019-03-26T22:55:53.485Z,99946.13
2019-03-26T22:58:23.179Z,99948.38
2019-03-26T23:00:52.947Z,99948.34
2019-03-26T23:03:22.678Z,99941.46
2019-03-26T23:05:52.351Z,99947.78
2019-03-26T23:08:22.098Z,99943.34
2019-03-26T23:10:51.808Z,99945.98
2019-03-26T23:13:21.512Z,99940.52
2019-03-26T23:15:51.199Z,99943.42
2019-03-26T23:18:22.186Z,99943.13
2019-03-26T23:20:53.629Z,99945.69
2019-03-26T23:26:12.922Z,99956.97
2019-03-26T23:28:42.599Z,99955.95
2019-03-26T23:31:12.284Z,99950.18
2019-03-26T23:33:42.043Z,99958.69
2019-03-26T23:36:11.724Z,99944.50
2019-03-26T23:38:41.468Z,99952.31
2019-03-26T23:41:11.132Z,99946.57
2019-03-26T23:43:40.947Z,99951.00
2019-03-26T23:46:10.635Z,99954.06
2019-03-26T23:48:40.372Z,99963.16
2019-03-26T23:51:10.042Z,99966.27
2019-03-26T23:53:39.732Z,99966.82
2019-03-26T23:56:09.398Z,99966.58
2019-03-26T23:58:39.095Z,99966.05
